createdAt,value
2017-03-20T12:52:54.417Z,920.7
2017-03-20T12:52:58.755Z,920.85
2017-03-20T12:53:03.196Z,921.04
2017-03-20T12:53:07.416Z,921.18
2017-03-20T12:53:11.631Z,921.45
2017-03-20T12:53:15.832Z,921.77
2017-03-20T12:53:19.927Z,922.11
2017-03-20T12:53:24.174Z,922.83
2017-03-20T12:53:28.384Z,923.16
2017-03-20T12:53:32.706Z,923.53
2017-03-20T12:53:36.905Z,923.94
2017-03-20T12:53:41.114Z,924.6
2017-03-20T12:53:45.551Z,925.06
2017-03-20T12:53:49.753Z,925.3
2017-03-20T12:53:53.833Z,925.38
2017-03-20T12:53:58.043Z,925.52
2017-03-20T12:54:02.253Z,925.69
2017-03-20T12:54:06.574Z,925.91
2017-03-20T12:54:10.778Z,926.02
2017-03-20T12:54:15.265Z,926.13
2017-03-20T12:54:19.466Z,926.3
2017-03-20T12:54:23.674Z,926.37
2017-03-20T12:54:27.756Z,926.6
2017-03-20T12:54:32.082Z,926.75
2017-03-20T12:54:36.395Z,927.03
2017-03-20T12:54:40.825Z,927.46
2017-03-20T12:54:45.042Z,927.85
2017-03-20T12:54:49.241Z,928.35
2017-03-20T12:54:53.568Z,928.81
2017-03-20T12:54:57.781Z,928.99
2017-03-20T12:55:02.098Z,929.27
2017-03-20T12:55:06.297Z,929.38
2017-03-20T12:55:10.547Z,929.83
2017-03-20T12:55:14.643Z,930.61
2017-03-20T12:55:18.858Z,931.54
2017-03-20T12:55:23.167Z,932.4
2017-03-20T12:55:27.481Z,933.1
2017-03-20T12:55:31.801Z,934.03
2017-03-20T12:55:36.111Z,934.9
2017-03-20T12:55:40.419Z,935.71
2017-03-20T12:55:44.257Z,936.39
2017-03-20T12:55:48.460Z,937.07
2017-03-20T12:55:52.682Z,937.56
2017-03-20T12:55:56.994Z,937.92
2017-03-20T12:56:01.306Z,937.67
2017-03-20T12:56:05.632Z,937.46
2017-03-20T12:56:10.059Z,937.29
2017-03-20T12:56:14.258Z,937.09
2017-03-20T12:56:18.581Z,937.01
2017-03-20T12:56:22.781Z,936.96
2017-03-20T12:56:27.100Z,936.83
2017-03-20T12:56:31.526Z,936.69
2017-03-20T12:56:35.843Z,936.66
2017-03-20T12:56:40.158Z,936.61
2017-03-20T12:56:44.351Z,936.52
2017-03-20T12:56:48.425Z,936.57
2017-03-20T12:56:52.739Z,936.6
2017-03-20T12:56:57.229Z,936.65
2017-03-20T12:57:01.422Z,936.56
2017-03-20T12:57:05.664Z,936.56
2017-03-20T12:57:09.980Z,936.42
2017-03-20T12:57:14.176Z,936.26
2017-03-20T12:57:18.495Z,936.08
2017-03-20T12:57:22.694Z,936
2017-03-20T12:57:26.895Z,935.82
2017-03-20T12:57:31.214Z,935.65
2017-03-20T12:57:35.580Z,935.52
2017-03-20T12:57:39.901Z,935.36
2017-03-20T12:57:44.219Z,935.17
2017-03-20T12:57:48.665Z,934.96
2017-03-20T12:57:52.744Z,934.83
2017-03-20T12:57:57.226Z,934.64
2017-03-20T12:58:01.421Z,934.47
2017-03-20T12:58:05.760Z,934.31
2017-03-20T12:58:09.969Z,934.19
2017-03-20T12:58:14.399Z,934.06
2017-03-20T12:58:18.616Z,933.91
2017-03-20T12:58:22.817Z,933.77
2017-03-20T12:58:27.126Z,933.7
2017-03-20T12:58:31.205Z,933.6
2017-03-20T12:58:35.183Z,933.43
2017-03-20T12:58:39.424Z,933.31
2017-03-20T12:58:43.855Z,933.14
2017-03-20T12:58:48.169Z,933.01
2017-03-20T12:58:52.619Z,932.82
2017-03-20T12:58:56.947Z,932.72
2017-03-20T12:59:01.151Z,932.61
2017-03-20T12:59:05.688Z,932.49
2017-03-20T12:59:09.809Z,932.3
2017-03-20T12:59:14.251Z,932.19
2017-03-20T12:59:18.452Z,932.11
2017-03-20T12:59:22.664Z,932
2017-03-20T12:59:27.001Z,931.89
2017-03-20T12:59:31.437Z,931.86
2017-03-20T12:59:35.879Z,931.81
2017-03-20T12:59:40.194Z,931.81
2017-03-20T12:59:44.393Z,931.77
2017-03-20T12:59:48.713Z,931.78
2017-03-20T12:59:53.151Z,932
2017-03-20T12:59:57.585Z,932.26
2017-03-20T13:00:01.910Z,932.59
2017-03-20T13:00:06.233Z,932.57
2017-03-20T13:00:10.546Z,932.79
2017-03-20T13:00:14.981Z,933.08
2017-03-20T13:00:19.362Z,933.39
2017-03-20T13:00:23.570Z,933.86
2017-03-20T13:00:27.891Z,934.21
2017-03-20T13:00:32.205Z,934.24
2017-03-20T13:00:36.524Z,934.07
2017-03-20T13:00:40.717Z,933.77
2017-03-20T13:00:45.041Z,933.62
2017-03-20T13:00:49.117Z,933.31
2017-03-20T13:00:53.312Z,933.17
2017-03-20T13:00:57.746Z,932.96
2017-03-20T13:01:01.945Z,932.78
2017-03-20T13:01:06.376Z,932.58
2017-03-20T13:01:10.692Z,932.45
2017-03-20T13:01:15.130Z,932.27
2017-03-20T13:01:19.205Z,932.06
2017-03-20T13:01:23.519Z,931.94
2017-03-20T13:01:27.719Z,931.75
2017-03-20T13:01:32.050Z,931.62
2017-03-20T13:01:36.362Z,931.42
2017-03-20T13:01:40.796Z,931.29
2017-03-20T13:01:45.109Z,931.12
2017-03-20T13:01:49.546Z,931.01
2017-03-20T13:01:53.737Z,930.89
2017-03-20T13:01:58.059Z,930.73
2017-03-20T13:02:02.485Z,930.65
2017-03-20T13:02:06.807Z,930.5
2017-03-20T13:02:11.007Z,930.36
2017-03-20T13:02:15.320Z,930.3
2017-03-20T13:02:19.511Z,930.2
2017-03-20T13:02:23.873Z,930.12
2017-03-20T13:02:28.075Z,929.94
2017-03-20T13:02:32.397Z,929.86
2017-03-20T13:02:36.719Z,929.69
2017-03-20T13:02:41.042Z,929.62
2017-03-20T13:02:45.364Z,929.54
2017-03-20T13:02:49.687Z,929.39
2017-03-20T13:02:54.009Z,929.31
2017-03-20T13:02:58.445Z,929.2
2017-03-20T13:03:02.892Z,929.15
2017-03-20T13:03:07.097Z,929.03
2017-03-20T13:03:11.535Z,928.86
2017-03-20T13:03:15.974Z,928.77
2017-03-20T13:03:20.291Z,928.67
2017-03-20T13:03:24.251Z,928.55
2017-03-20T13:03:28.332Z,928.47
2017-03-20T13:03:32.769Z,928.38
2017-03-20T13:03:37.214Z,928.26
2017-03-20T13:03:41.532Z,928.19
2017-03-20T13:03:45.974Z,928.09
2017-03-20T13:03:50.288Z,927.99
2017-03-20T13:03:54.654Z,927.88
2017-03-20T13:03:58.744Z,927.82
2017-03-20T13:04:03.175Z,927.72
2017-03-20T13:04:07.619Z,927.68
2017-03-20T13:04:11.820Z,927.67
2017-03-20T13:04:16.260Z,927.63
2017-03-20T13:04:20.356Z,927.58
2017-03-20T13:04:24.690Z,927.54
2017-03-20T13:04:28.898Z,927.53
2017-03-20T13:04:33.102Z,927.53
2017-03-20T13:04:37.413Z,927.55
2017-03-20T13:04:41.612Z,927.52
2017-03-20T13:04:46.043Z,927.49
2017-03-20T13:04:50.238Z,927.51
2017-03-20T13:04:54.198Z,927.52
2017-03-20T13:04:58.520Z,927.52
2017-03-20T13:05:03.163Z,927.54
2017-03-20T13:05:07.472Z,927.57
2017-03-20T13:05:11.787Z,927.62
2017-03-20T13:05:16.222Z,927.63
2017-03-20T13:05:20.537Z,927.66
2017-03-20T13:05:24.740Z,927.68
2017-03-20T13:05:29.061Z,927.79
2017-03-20T13:05:33.141Z,927.87
2017-03-20T13:05:37.222Z,927.95
2017-03-20T13:05:41.301Z,928.17
2017-03-20T13:05:45.629Z,928.34
2017-03-20T13:05:50.059Z,928.45
2017-03-20T13:05:54.370Z,928.67
2017-03-20T13:05:58.679Z,928.81
2017-03-20T13:06:03.120Z,928.87
2017-03-20T13:06:07.454Z,929.07
2017-03-20T13:06:11.762Z,929.15
2017-03-20T13:06:16.192Z,929.26
2017-03-20T13:06:20.275Z,929.61
2017-03-20T13:06:24.707Z,930.04
2017-03-20T13:06:29.034Z,930.15
2017-03-20T13:06:33.350Z,930.38
2017-03-20T13:06:37.704Z,930.68
2017-03-20T13:06:41.911Z,930.85
2017-03-20T13:06:46.228Z,931.06
2017-03-20T13:06:50.542Z,931.28
2017-03-20T13:06:54.866Z,931.53
2017-03-20T13:06:59.306Z,932
2017-03-20T13:07:03.834Z,932.25
2017-03-20T13:07:08.165Z,932.62
2017-03-20T13:07:12.532Z,932.94
2017-03-20T13:07:16.964Z,933.77
2017-03-20T13:07:21.161Z,934.68
2017-03-20T13:07:25.239Z,935.45
2017-03-20T13:07:29.447Z,936.11
2017-03-20T13:07:33.764Z,937.01
2017-03-20T13:07:38.208Z,937.77
2017-03-20T13:07:42.525Z,938.03
2017-03-20T13:07:46.969Z,938.16
2017-03-20T13:07:51.300Z,938.22
2017-03-20T13:07:55.783Z,938.27
2017-03-20T13:08:00.106Z,938.42
2017-03-20T13:08:04.420Z,938.72
2017-03-20T13:08:08.748Z,939.09
2017-03-20T13:08:13.113Z,939.43
2017-03-20T13:08:17.428Z,940.15
2017-03-20T13:08:21.628Z,940.74
2017-03-20T13:08:25.730Z,941.47
2017-03-20T13:08:30.055Z,942.08
2017-03-20T13:08:34.492Z,942.65
2017-03-20T13:08:38.932Z,943.33
2017-03-20T13:08:43.381Z,943.96
2017-03-20T13:08:47.813Z,944.53
2017-03-20T13:08:52.130Z,945.06
2017-03-20T13:08:56.449Z,945.56
2017-03-20T13:09:00.766Z,945.93
2017-03-20T13:09:05.455Z,946.56
2017-03-20T13:09:09.776Z,947
2017-03-20T13:09:14.095Z,947.42
2017-03-20T13:09:18.423Z,947.43
2017-03-20T13:09:22.777Z,947.68
2017-03-20T13:09:27.222Z,948
2017-03-20T13:09:31.666Z,948.46
2017-03-20T13:09:35.984Z,948.9
2017-03-20T13:09:40.185Z,949.19
2017-03-20T13:09:44.380Z,949.48
2017-03-20T13:09:48.819Z,949.54
2017-03-20T13:09:53.267Z,949.65
2017-03-20T13:09:57.708Z,949.6
2017-03-20T13:10:02.110Z,949.37
2017-03-20T13:10:06.313Z,949
2017-03-20T13:10:10.508Z,948.67
2017-03-20T13:10:14.821Z,948.35
2017-03-20T13:10:19.019Z,948.14
2017-03-20T13:10:22.979Z,947.98
2017-03-20T13:10:27.413Z,947.98
2017-03-20T13:10:31.722Z,947.97
2017-03-20T13:10:35.918Z,948.05
2017-03-20T13:10:40.240Z,948.04
2017-03-20T13:10:44.466Z,948.04
2017-03-20T13:10:48.892Z,947.99
2017-03-20T13:10:52.850Z,948.04
2017-03-20T13:10:57.166Z,948.17
2017-03-20T13:11:01.374Z,948.28
2017-03-20T13:11:05.790Z,948.37
2017-03-20T13:11:10.104Z,948.43
2017-03-20T13:11:14.417Z,948.39
2017-03-20T13:11:18.502Z,948.33
2017-03-20T13:11:22.578Z,948.37
2017-03-20T13:11:26.773Z,948.48
2017-03-20T13:11:31.195Z,948.59
2017-03-20T13:11:35.391Z,948.7
2017-03-20T13:11:39.716Z,948.85
2017-03-20T13:11:44.144Z,948.83
2017-03-20T13:11:48.456Z,949.14
2017-03-20T13:11:52.415Z,949.27
2017-03-20T13:11:56.729Z,949.46
2017-03-20T13:12:01.039Z,949.62
2017-03-20T13:12:05.242Z,949.74
2017-03-20T13:12:09.564Z,950.06
2017-03-20T13:12:13.997Z,950.31
2017-03-20T13:12:18.200Z,950.64
2017-03-20T13:12:22.286Z,950.91
2017-03-20T13:12:26.602Z,951.28
2017-03-20T13:12:30.801Z,951.6
2017-03-20T13:12:35.230Z,951.74
2017-03-20T13:12:39.555Z,952.1
2017-03-20T13:12:43.758Z,952.45
2017-03-20T13:12:48.090Z,952.6
2017-03-20T13:12:52.290Z,953.02
2017-03-20T13:12:56.380Z,953.2
2017-03-20T13:13:00.867Z,953.43
2017-03-20T13:13:05.316Z,953.47
2017-03-20T13:13:09.760Z,953.64
2017-03-20T13:13:14.192Z,953.68
2017-03-20T13:13:18.398Z,953.74
2017-03-20T13:13:22.605Z,953.63
2017-03-20T13:13:26.825Z,953.77
2017-03-20T13:13:31.031Z,953.7
2017-03-20T13:13:35.114Z,953.66
2017-03-20T13:13:39.080Z,953.63
2017-03-20T13:13:43.418Z,953.63
2017-03-20T13:13:47.744Z,953.81
2017-03-20T13:13:52.063Z,953.7
2017-03-20T13:13:56.395Z,953.66
2017-03-20T13:14:00.832Z,953.59
2017-03-20T13:14:05.351Z,953.43
2017-03-20T13:14:09.694Z,953.36
2017-03-20T13:14:13.897Z,953.15
2017-03-20T13:14:18.339Z,952.85
2017-03-20T13:14:22.538Z,952.48
2017-03-20T13:14:26.746Z,952.21
2017-03-20T13:14:30.727Z,951.85
2017-03-20T13:14:35.155Z,951.6
2017-03-20T13:14:39.465Z,951.25
2017-03-20T13:14:43.798Z,950.89
2017-03-20T13:14:48.236Z,950.59
2017-03-20T13:14:52.560Z,950.27
2017-03-20T13:14:56.645Z,949.98
2017-03-20T13:15:01.089Z,949.68
2017-03-20T13:15:05.304Z,949.43
2017-03-20T13:15:09.759Z,949.21
2017-03-20T13:15:14.189Z,948.84
2017-03-20T13:15:18.501Z,948.39
2017-03-20T13:15:22.344Z,948.04
2017-03-20T13:15:26.579Z,947.59
2017-03-20T13:15:30.780Z,947.18
2017-03-20T13:15:35.087Z,946.76
2017-03-20T13:15:39.170Z,946.37
2017-03-20T13:15:43.414Z,945.91
2017-03-20T13:15:47.842Z,945.49
2017-03-20T13:15:51.917Z,945.15
2017-03-20T13:15:56.356Z,944.79
2017-03-20T13:16:00.719Z,944.5
2017-03-20T13:16:05.040Z,944.23
2017-03-20T13:16:09.234Z,943.92
2017-03-20T13:16:13.555Z,943.54
2017-03-20T13:16:17.787Z,943.19
2017-03-20T13:16:22.107Z,942.79
2017-03-20T13:16:26.415Z,942.55
2017-03-20T13:16:30.605Z,942.21
2017-03-20T13:16:35.053Z,941.83
2017-03-20T13:16:39.485Z,941.3
2017-03-20T13:16:43.681Z,941.06
2017-03-20T13:16:47.989Z,940.7
2017-03-20T13:16:52.189Z,940.42
2017-03-20T13:16:56.391Z,940.02
2017-03-20T13:17:00.713Z,939.7
2017-03-20T13:17:05.147Z,939.32
2017-03-20T13:17:09.587Z,938.93
2017-03-20T13:17:13.904Z,938.71
2017-03-20T13:17:18.220Z,938.38
2017-03-20T13:17:22.344Z,938.09
2017-03-20T13:17:26.800Z,937.82
2017-03-20T13:17:31.113Z,937.58
2017-03-20T13:17:35.310Z,937.34
2017-03-20T13:17:39.526Z,937.09
2017-03-20T13:17:43.735Z,936.79
2017-03-20T13:17:47.945Z,936.66
2017-03-20T13:17:52.020Z,936.44
2017-03-20T13:17:56.350Z,936.25
2017-03-20T13:18:00.693Z,936.04
2017-03-20T13:18:05.018Z,935.95
2017-03-20T13:18:09.237Z,935.79
2017-03-20T13:18:13.322Z,935.67
2017-03-20T13:18:17.764Z,935.53
2017-03-20T13:18:21.761Z,935.39
2017-03-20T13:18:26.211Z,935.32
2017-03-20T13:18:30.675Z,935.23
2017-03-20T13:18:34.902Z,935.17
2017-03-20T13:18:39.226Z,935.05
2017-03-20T13:18:43.546Z,934.89
2017-03-20T13:18:48.041Z,934.9
2017-03-20T13:18:52.245Z,934.81
2017-03-20T13:18:56.584Z,934.75
2017-03-20T13:19:00.916Z,934.59
2017-03-20T13:19:05.449Z,934.49
2017-03-20T13:19:09.906Z,934.36
2017-03-20T13:19:14.230Z,934.23
2017-03-20T13:19:18.553Z,934.13
2017-03-20T13:19:22.638Z,934.06
2017-03-20T13:19:27.076Z,933.94
2017-03-20T13:19:31.283Z,933.82
2017-03-20T13:19:35.500Z,933.68
2017-03-20T13:19:39.585Z,933.59
2017-03-20T13:19:43.899Z,933.42
2017-03-20T13:19:48.219Z,933.33
2017-03-20T13:19:52.461Z,933.23
2017-03-20T13:19:56.555Z,933.09
2017-03-20T13:20:00.646Z,933.03
2017-03-20T13:20:04.982Z,932.91
2017-03-20T13:20:09.196Z,932.83
2017-03-20T13:20:13.512Z,932.76
2017-03-20T13:20:17.941Z,932.7
2017-03-20T13:20:22.142Z,932.61
2017-03-20T13:20:26.462Z,932.45
2017-03-20T13:20:30.899Z,932.42
2017-03-20T13:20:35.098Z,932.32
2017-03-20T13:20:39.291Z,932.21
2017-03-20T13:20:43.718Z,932.13
2017-03-20T13:20:47.914Z,932.03
2017-03-20T13:20:52.359Z,931.81
2017-03-20T13:20:56.443Z,931.61
2017-03-20T13:21:00.631Z,931.44
2017-03-20T13:21:05.368Z,931.25
2017-03-20T13:21:09.569Z,931.07
2017-03-20T13:21:14.001Z,930.79
2017-03-20T13:21:18.318Z,930.64
2017-03-20T13:21:22.040Z,930.49
2017-03-20T13:21:26.234Z,930.26
2017-03-20T13:21:30.547Z,930.08
2017-03-20T13:21:34.749Z,929.91
2017-03-20T13:21:39.178Z,929.68
2017-03-20T13:21:43.394Z,929.53
2017-03-20T13:21:47.828Z,929.3
2017-03-20T13:21:51.903Z,929.15
2017-03-20T13:21:56.097Z,928.98
2017-03-20T13:22:00.531Z,928.78
2017-03-20T13:22:04.813Z,928.62
2017-03-20T13:22:09.120Z,928.45
2017-03-20T13:22:13.315Z,928.3
2017-03-20T13:22:17.539Z,928.15
2017-03-20T13:22:21.741Z,927.97
2017-03-20T13:22:25.712Z,927.85
2017-03-20T13:22:29.790Z,927.69
2017-03-20T13:22:34.218Z,927.55
2017-03-20T13:22:38.308Z,927.49
2017-03-20T13:22:42.618Z,927.38
2017-03-20T13:22:47.062Z,927.28
2017-03-20T13:22:51.266Z,927.18
2017-03-20T13:22:55.612Z,927.14
2017-03-20T13:22:59.938Z,927.03
2017-03-20T13:23:04.474Z,926.94
2017-03-20T13:23:08.912Z,926.82
2017-03-20T13:23:13.239Z,926.74
2017-03-20T13:23:17.433Z,926.66
2017-03-20T13:23:21.632Z,926.59
2017-03-20T13:23:25.839Z,926.57
2017-03-20T13:23:30.294Z,926.5
2017-03-20T13:23:34.376Z,926.51
2017-03-20T13:23:38.825Z,926.45
2017-03-20T13:23:43.267Z,926.47
2017-03-20T13:23:47.715Z,926.4
2017-03-20T13:23:51.917Z,926.46
2017-03-20T13:23:56.363Z,926.42
2017-03-20T13:24:00.803Z,926.43
2017-03-20T13:24:05.327Z,926.42
2017-03-20T13:24:09.540Z,926.41
2017-03-20T13:24:13.860Z,926.53
2017-03-20T13:24:18.179Z,926.63
2017-03-20T13:24:22.514Z,926.76
2017-03-20T13:24:26.885Z,926.83
2017-03-20T13:24:31.204Z,926.96
2017-03-20T13:24:35.644Z,926.98
2017-03-20T13:24:39.967Z,927.09
2017-03-20T13:24:44.164Z,927.19
2017-03-20T13:24:48.599Z,927.26
2017-03-20T13:24:52.917Z,927.39
2017-03-20T13:24:57.244Z,927.56
2017-03-20T13:25:01.616Z,927.74
2017-03-20T13:25:05.926Z,928.07
2017-03-20T13:25:10.243Z,928.35
2017-03-20T13:25:14.567Z,928.66
2017-03-20T13:25:18.783Z,929.05
2017-03-20T13:25:23.109Z,929.4
2017-03-20T13:25:27.304Z,929.66
2017-03-20T13:25:31.736Z,929.84
2017-03-20T13:25:35.942Z,929.6
2017-03-20T13:25:40.262Z,929.43
2017-03-20T13:25:44.699Z,929.3
2017-03-20T13:25:49.023Z,929.06
2017-03-20T13:25:52.868Z,928.95
2017-03-20T13:25:57.104Z,928.8
2017-03-20T13:26:01.411Z,928.66
2017-03-20T13:26:05.631Z,928.5
2017-03-20T13:26:09.939Z,928.34
2017-03-20T13:26:14.262Z,928.25
2017-03-20T13:26:18.343Z,928.13
2017-03-20T13:26:22.776Z,927.96
2017-03-20T13:26:27.090Z,927.85
2017-03-20T13:26:31.409Z,927.8
2017-03-20T13:26:35.844Z,927.72
2017-03-20T13:26:40.282Z,927.85
2017-03-20T13:26:44.601Z,928
2017-03-20T13:26:48.792Z,928.27
2017-03-20T13:26:53.232Z,928.63
2017-03-20T13:26:57.551Z,929.02
2017-03-20T13:27:01.871Z,929.29
2017-03-20T13:27:06.193Z,929.61
2017-03-20T13:27:10.521Z,929.91
2017-03-20T13:27:14.833Z,930.26
2017-03-20T13:27:19.139Z,930.57
2017-03-20T13:27:23.335Z,930.96
2017-03-20T13:27:27.781Z,931.33
2017-03-20T13:27:32.128Z,931.73
2017-03-20T13:27:36.439Z,932.2
2017-03-20T13:27:40.767Z,932.64
2017-03-20T13:27:45.217Z,933.03
2017-03-20T13:27:49.419Z,933.33
2017-03-20T13:27:53.733Z,933.69
2017-03-20T13:27:57.934Z,934.01
2017-03-20T13:28:02.264Z,934.32
2017-03-20T13:28:06.348Z,934.63
2017-03-20T13:28:10.573Z,934.75
2017-03-20T13:28:14.889Z,935.08
2017-03-20T13:28:18.983Z,935.25
2017-03-20T13:28:23.313Z,935.53
2017-03-20T13:28:27.637Z,935.59
2017-03-20T13:28:32.071Z,935.83
2017-03-20T13:28:36.381Z,936.14
2017-03-20T13:28:40.702Z,936.43
2017-03-20T13:28:44.893Z,936.8
2017-03-20T13:28:49.214Z,937.17
2017-03-20T13:28:53.293Z,937.62
2017-03-20T13:28:57.511Z,938.04
2017-03-20T13:29:01.831Z,938.54
2017-03-20T13:29:06.273Z,938.68
2017-03-20T13:29:10.702Z,938.69
2017-03-20T13:29:15.061Z,938.74
2017-03-20T13:29:19.147Z,938.63
2017-03-20T13:29:23.101Z,938.49
2017-03-20T13:29:27.422Z,938.36
2017-03-20T13:29:31.505Z,938.41
2017-03-20T13:29:35.971Z,938.65
2017-03-20T13:29:40.311Z,938.78
2017-03-20T13:29:44.621Z,938.92
2017-03-20T13:29:48.702Z,939.07
2017-03-20T13:29:53.029Z,939.52
2017-03-20T13:29:57.344Z,939.58
2017-03-20T13:30:01.790Z,939.82
2017-03-20T13:30:05.759Z,940.02
2017-03-20T13:30:10.191Z,939.99
2017-03-20T13:30:14.502Z,939.91
2017-03-20T13:30:18.947Z,940.21
2017-03-20T13:30:23.258Z,940.74
2017-03-20T13:30:27.570Z,941.23
2017-03-20T13:30:31.999Z,941.42
2017-03-20T13:30:36.318Z,941.58
2017-03-20T13:30:40.800Z,941.34
2017-03-20T13:30:45.225Z,941.04
2017-03-20T13:30:49.413Z,940.78
2017-03-20T13:30:53.611Z,940.64
2017-03-20T13:30:58.050Z,940.67
2017-03-20T13:31:02.665Z,940.81
2017-03-20T13:31:07.104Z,941.24
2017-03-20T13:31:11.296Z,941.65
2017-03-20T13:31:15.610Z,942
2017-03-20T13:31:20.044Z,942.37
2017-03-20T13:31:24.241Z,942.71
2017-03-20T13:31:28.563Z,942.98
2017-03-20T13:31:32.876Z,943.18
2017-03-20T13:31:37.064Z,943.4
2017-03-20T13:31:41.254Z,943.56
2017-03-20T13:31:45.679Z,943.67
2017-03-20T13:31:49.999Z,943.74
2017-03-20T13:31:54.072Z,943.59
2017-03-20T13:31:58.508Z,943.58
2017-03-20T13:32:02.850Z,943.72
2017-03-20T13:32:07.058Z,943.92
2017-03-20T13:32:11.376Z,944.19
2017-03-20T13:32:15.811Z,944.43
2017-03-20T13:32:20.141Z,944.58
2017-03-20T13:32:24.568Z,944.71
2017-03-20T13:32:29.003Z,944.79
2017-03-20T13:32:33.200Z,944.93
2017-03-20T13:32:37.548Z,945.14
2017-03-20T13:32:41.761Z,945.33
2017-03-20T13:32:45.962Z,945.5
2017-03-20T13:32:50.291Z,945.49
2017-03-20T13:32:54.548Z,945.68
2017-03-20T13:32:58.868Z,945.98
2017-03-20T13:33:03.404Z,946.31
2017-03-20T13:33:07.846Z,946.65
2017-03-20T13:33:12.174Z,947.05
2017-03-20T13:33:16.428Z,946.55
2017-03-20T13:33:20.747Z,946.16
2017-03-20T13:33:25.062Z,945.76
2017-03-20T13:33:29.034Z,945.3
2017-03-20T13:33:33.356Z,944.85
2017-03-20T13:33:37.683Z,944.5
2017-03-20T13:33:42.005Z,944.17
2017-03-20T13:33:46.336Z,943.84
2017-03-20T13:33:50.774Z,943.7
2017-03-20T13:33:54.975Z,943.97
2017-03-20T13:33:59.412Z,944.33
2017-03-20T13:34:03.999Z,944.58
2017-03-20T13:34:08.350Z,944.88
2017-03-20T13:34:12.664Z,945.24
2017-03-20T13:34:17.101Z,945.49
2017-03-20T13:34:21.421Z,945.8
2017-03-20T13:34:25.739Z,946.07
2017-03-20T13:34:30.181Z,946.32
2017-03-20T13:34:34.616Z,946.51
2017-03-20T13:34:38.931Z,946.72
2017-03-20T13:34:43.366Z,946.93
2017-03-20T13:34:47.564Z,947.11
2017-03-20T13:34:51.642Z,947.28
2017-03-20T13:34:55.956Z,947.42
2017-03-20T13:35:00.290Z,947.41
2017-03-20T13:35:04.607Z,947.41
2017-03-20T13:35:09.033Z,947.43
2017-03-20T13:35:13.241Z,947.39
2017-03-20T13:35:17.442Z,947.53
2017-03-20T13:35:21.512Z,947.61
2017-03-20T13:35:25.828Z,947.72
2017-03-20T13:35:30.139Z,947.78
2017-03-20T13:35:34.464Z,947.85
2017-03-20T13:35:38.821Z,947.71
2017-03-20T13:35:43.137Z,947.62
2017-03-20T13:35:47.335Z,947.53
2017-03-20T13:35:51.780Z,947.49
2017-03-20T13:35:55.863Z,947.52
2017-03-20T13:36:00.291Z,947.58
2017-03-20T13:36:04.702Z,947.54
2017-03-20T13:36:08.898Z,947.42
2017-03-20T13:36:13.210Z,947.25
2017-03-20T13:36:17.404Z,947
2017-03-20T13:36:21.844Z,946.74
2017-03-20T13:36:26.051Z,946.48
2017-03-20T13:36:30.376Z,946.29
2017-03-20T13:36:34.703Z,946.12
2017-03-20T13:36:38.908Z,946.01
2017-03-20T13:36:43.352Z,945.9
2017-03-20T13:36:47.666Z,945.78
2017-03-20T13:36:51.865Z,945.68
2017-03-20T13:36:55.834Z,945.6
2017-03-20T13:37:00.153Z,945.46
2017-03-20T13:37:04.406Z,945.31
2017-03-20T13:37:08.720Z,945.16
2017-03-20T13:37:13.042Z,945.1
2017-03-20T13:37:17.353Z,945.07
2017-03-20T13:37:21.785Z,945.02
2017-03-20T13:37:26.104Z,944.98
2017-03-20T13:37:30.311Z,944.94
2017-03-20T13:37:34.624Z,944.84
2017-03-20T13:37:38.835Z,944.8
2017-03-20T13:37:43.272Z,944.72
2017-03-20T13:37:47.474Z,944.71
2017-03-20T13:37:51.669Z,944.7
2017-03-20T13:37:56.105Z,944.63
2017-03-20T13:38:00.422Z,944.56
2017-03-20T13:38:04.967Z,944.45
2017-03-20T13:38:09.415Z,944.33
2017-03-20T13:38:13.616Z,944.18
2017-03-20T13:38:17.939Z,943.95
2017-03-20T13:38:22.026Z,943.85
2017-03-20T13:38:26.360Z,943.77
2017-03-20T13:38:30.706Z,943.69
2017-03-20T13:38:35.024Z,943.65
2017-03-20T13:38:39.230Z,943.58
2017-03-20T13:38:43.319Z,943.56
2017-03-20T13:38:47.760Z,943.48
2017-03-20T13:38:51.838Z,943.52
2017-03-20T13:38:56.034Z,943.49
2017-03-20T13:39:00.469Z,943.55
2017-03-20T13:39:04.912Z,943.6
2017-03-20T13:39:09.235Z,943.67
2017-03-20T13:39:13.436Z,943.67
2017-03-20T13:39:17.750Z,943.72
2017-03-20T13:39:21.955Z,943.77
2017-03-20T13:39:26.395Z,943.77
2017-03-20T13:39:30.501Z,943.88
2017-03-20T13:39:34.816Z,943.94
2017-03-20T13:39:39.246Z,943.96
2017-03-20T13:39:43.329Z,943.94
2017-03-20T13:39:47.529Z,944.03
2017-03-20T13:39:51.730Z,944.01
2017-03-20T13:39:55.948Z,944
2017-03-20T13:40:00.416Z,944.05
2017-03-20T13:40:04.494Z,944.08
2017-03-20T13:40:08.924Z,944.09
2017-03-20T13:40:13.361Z,944.12
2017-03-20T13:40:17.687Z,944.11
2017-03-20T13:40:21.882Z,944.2
2017-03-20T13:40:26.198Z,944.25
2017-03-20T13:40:30.398Z,944.22
2017-03-20T13:40:34.826Z,944.33
2017-03-20T13:40:38.901Z,944.44
2017-03-20T13:40:43.216Z,944.49
2017-03-20T13:40:47.531Z,944.54
2017-03-20T13:40:51.727Z,944.64
2017-03-20T13:40:55.928Z,944.71
2017-03-20T13:41:00.121Z,944.75
2017-03-20T13:41:04.552Z,944.78
2017-03-20T13:41:08.995Z,944.85
2017-03-20T13:41:13.306Z,944.61
2017-03-20T13:41:17.621Z,944.83
2017-03-20T13:41:21.823Z,944.9
2017-03-20T13:41:26.154Z,945.01
2017-03-20T13:41:30.587Z,945.2
2017-03-20T13:41:34.783Z,945.31
2017-03-20T13:41:38.979Z,945.43
2017-03-20T13:41:43.286Z,945.65
2017-03-20T13:41:47.594Z,945.91
2017-03-20T13:41:51.675Z,946.14
2017-03-20T13:41:55.991Z,946.37
2017-03-20T13:42:00.420Z,946.7
2017-03-20T13:42:04.732Z,946.97
2017-03-20T13:42:09.046Z,947.11
2017-03-20T13:42:13.248Z,947.3
2017-03-20T13:42:17.679Z,947.59
2017-03-20T13:42:21.994Z,947.88
2017-03-20T13:42:26.441Z,947.98
2017-03-20T13:42:30.406Z,948.18
2017-03-20T13:42:34.837Z,948.32
2017-03-20T13:42:39.280Z,948.54
2017-03-20T13:42:43.487Z,948.64
2017-03-20T13:42:47.815Z,948.9
2017-03-20T13:42:51.894Z,949.07
2017-03-20T13:42:56.210Z,949.23
2017-03-20T13:43:00.641Z,949.44
2017-03-20T13:43:05.007Z,949.62
2017-03-20T13:43:09.321Z,949.78
2017-03-20T13:43:13.644Z,949.89
2017-03-20T13:43:17.969Z,950.09
2017-03-20T13:43:22.321Z,950.31
2017-03-20T13:43:26.643Z,950.43
2017-03-20T13:43:30.967Z,950.32
2017-03-20T13:43:35.399Z,950.19
2017-03-20T13:43:39.720Z,950.05
2017-03-20T13:43:44.037Z,950
2017-03-20T13:43:48.349Z,949.88
2017-03-20T13:43:52.780Z,949.67
2017-03-20T13:43:57.222Z,949.48
2017-03-20T13:44:01.540Z,949.24
2017-03-20T13:44:05.857Z,948.93
2017-03-20T13:44:10.304Z,948.7
2017-03-20T13:44:14.626Z,948.4
2017-03-20T13:44:18.822Z,948.26
2017-03-20T13:44:22.901Z,948.07
2017-03-20T13:44:27.225Z,947.82
2017-03-20T13:44:31.583Z,947.57
2017-03-20T13:44:36.021Z,947.32
2017-03-20T13:44:40.330Z,947.12
2017-03-20T13:44:44.525Z,946.9
2017-03-20T13:44:48.611Z,946.7
2017-03-20T13:44:52.810Z,946.55
2017-03-20T13:44:57.005Z,946.38
2017-03-20T13:45:01.748Z,946.3
2017-03-20T13:45:05.827Z,946.14
2017-03-20T13:45:10.151Z,946.05
2017-03-20T13:45:14.581Z,945.99
2017-03-20T13:45:18.918Z,945.96
2017-03-20T13:45:23.000Z,945.89
2017-03-20T13:45:27.197Z,945.88
2017-03-20T13:45:31.622Z,945.87
2017-03-20T13:45:35.818Z,945.74
2017-03-20T13:45:39.782Z,945.67
2017-03-20T13:45:44.096Z,945.76
2017-03-20T13:45:48.403Z,945.69
2017-03-20T13:45:52.713Z,945.76
2017-03-20T13:45:57.152Z,945.68
2017-03-20T13:46:01.469Z,945.73
2017-03-20T13:46:05.663Z,945.66
2017-03-20T13:46:09.985Z,945.61
2017-03-20T13:46:14.186Z,945.42
2017-03-20T13:46:18.516Z,945.45
2017-03-20T13:46:22.748Z,945.39
2017-03-20T13:46:26.947Z,945.35
2017-03-20T13:46:31.041Z,945.34
2017-03-20T13:46:35.241Z,945.34
2017-03-20T13:46:39.433Z,945.25